Time;durP1;ratioP1;P1;durP2;ratioP2;P2;SDS_P1;SDS_P2;PMS_P1;PMS_P2;Temp;Humidity;BMP_temperature;BMP_pressure;BME280_temperature;BME280_humidity;BME280_pressure;Samples;Min_cycle;Max_cycle;Signal;HPM_P1;HPM_P2
2021/01/28 00:01:51;;;;;;;;;;;;;;;-1.11;68.16;97751.86;1649900;86;26278;-83
2021/01/28 00:04:37;;;;;;;;;;;;;;;-1.13;68.16;97748.05;1660942;85;24777;-82
2021/01/28 00:07:23;;;;;;;;;;;;;;;-1.29;68.17;97751.59;1659262;85;20464;-82
2021/01/28 00:10:12;;;;;;;;;;;;;;;-1.34;68.11;97743.20;1654784;86;25880;-82
2021/01/28 00:12:58;;;;;;;;;;;;;;;-1.34;68.09;97743.66;1676022;84;21991;-82
2021/01/28 00:15:44;;;;;;;;;;;;;;;-1.36;68.08;97734.72;1657086;85;27055;-82
2021/01/28 00:18:32;;;;;;;;;;;;;;;-1.32;68.07;97729.89;1661263;85;24853;-82
2021/01/28 00:21:19;;;;;;;;;;;;;;;-1.35;68.08;97727.41;1651868;85;20350;-82
2021/01/28 00:24:04;;;;;;;;;;;;;;;-1.36;68.08;97733.42;1656187;85;24977;-89
2021/01/28 00:26:56;;;;;;;;;;;;;;;-1.40;68.07;97728.02;1659271;85;22276;-89
2021/01/28 00:29:41;;;;;;;;;;;;;;;-1.53;68.05;97728.05;1650904;86;27095;-86
2021/01/28 00:32:28;;;;;;;;;;;;;;;-1.58;68.04;97732.47;1661356;84;24606;-85
2021/01/28 00:35:14;;;;;;;;;;;;;;;-1.58;68.05;97742.72;1661302;85;20291;-86
2021/01/28 00:37:59;;;;;;;;;;;;;;;-1.60;68.05;97732.14;1639204;86;24874;-87
2021/01/28 00:40:45;;;;;;;;;;;;;;;-1.58;68.05;97735.03;1647170;86;22223;-86
2021/01/28 00:43:33;;;;;;;;;;;;;;;-1.62;68.07;97731.34;1646919;86;26141;-85
2021/01/28 00:46:19;;;;;;;;;;;;;;;-1.59;68.07;97721.83;1641927;86;23730;-85
2021/01/28 00:49:06;;;;;;;;;;;;;;;-1.61;68.06;97724.88;1648093;86;20287;-86
2021/01/28 00:51:52;;;;;;;;;;;;;;;-1.64;68.08;97718.58;1646967;86;25739;-86
2021/01/28 00:54:38;;;;;;;;;;;;;;;-1.65;68.06;97718.62;1652210;86;22988;-86
2021/01/28 00:57:24;;;;;;;;;;;;;;;-1.66;68.07;97716.50;1641613;86;26324;-86
2021/01/28 01:00:10;;;;;;;;;;;;;;;-1.73;68.05;97708.61;1638305;86;25506;-86
2021/01/28 01:02:56;;;;;;;;;;;;;;;-1.75;68.04;97708.67;1620274;86;20540;-85
2021/01/28 01:05:42;;;;;;;;;;;;;;;-1.82;68.02;97714.88;1640815;86;25216;-85
2021/01/28 01:08:29;;;;;;;;;;;;;;;-1.91;67.99;97711.31;1644369;86;22985;-88
2021/01/28 01:11:15;;;;;;;;;;;;;;;-1.89;67.97;97715.12;1644198;86;26414;-88
2021/01/28 01:14:01;;;;;;;;;;;;;;;-1.94;67.96;97718.27;1657444;85;24769;-88
2021/01/28 01:16:51;;;;;;;;;;;;;;;-2.04;67.95;97714.33;1665082;85;20295;-89
2021/01/28 01:19:38;;;;;;;;;;;;;;;-2.05;67.94;97720.33;1661765;85;24384;-82
2021/01/28 01:22:29;;;;;;;;;;;;;;;-2.17;67.93;97714.70;1663640;85;22388;-82
2021/01/28 01:25:15;;;;;;;;;;;;;;;-2.24;67.90;97711.11;1667824;85;26984;-86
2021/01/28 01:28:01;;;;;;;;;;;;;;;-2.25;67.90;97712.83;1662230;85;24592;-86
2021/01/28 01:30:47;;;;;;;;;;;;;;;-2.29;67.87;97714.25;1663632;85;20275;-82
2021/01/28 01:33:34;;;;;;;;;;;;;;;-2.31;67.87;97712.17;1662032;85;25279;-82
2021/01/28 01:36:20;;;;;;;;;;;;;;;-2.31;67.88;97714.30;1660804;85;22230;-82
2021/01/28 01:39:06;;;;;;;;;;;;;;;-2.29;67.90;97702.73;1661110;85;27162;-83
2021/01/28 01:41:54;;;;;;;;;;;;;;;-2.29;67.92;97706.57;1666131;85;24689;-83
2021/01/28 01:44:40;;;;;;;;;;;;;;;-2.29;67.93;97704.00;1666363;85;20312;-83
2021/01/28 01:47:26;;;;;;;;;;;;;;;-2.27;67.94;97685.56;1666264;85;24928;-83
2021/01/28 01:50:12;;;;;;;;;;;;;;;-2.33;67.96;97677.62;1649139;85;22174;-83
2021/01/28 01:52:58;;;;;;;;;;;;;;;-2.42;67.97;97669.39;1641719;86;26219;-83
2021/01/28 01:55:47;;;;;;;;;;;;;;;-2.45;67.97;97671.58;1646455;86;25709;-83
2021/01/28 01:58:34;;;;;;;;;;;;;;;-2.41;67.97;97670.63;1653265;85;20292;-86
2021/01/28 02:01:21;;;;;;;;;;;;;;;-2.38;67.99;97668.40;1655703;85;24959;-86
2021/01/28 02:04:07;;;;;;;;;;;;;;;-2.36;68.00;97662.36;1660722;85;22182;-83
2021/01/28 02:06:53;;;;;;;;;;;;;;;-2.34;68.02;97657.16;1657387;85;26327;-83
2021/01/28 02:09:40;;;;;;;;;;;;;;;-2.33;68.06;97656.28;1664385;85;24670;-83
2021/01/28 02:12:25;;;;;;;;;;;;;;;-2.33;68.07;97649.44;1665478;85;20432;-83
2021/01/28 02:15:12;;;;;;;;;;;;;;;-2.35;68.10;97646.10;1668243;85;25121;-83
2021/01/28 02:17:58;;;;;;;;;;;;;;;-2.36;68.11;97639.73;1666348;85;22376;-86
2021/01/28 02:20:44;;;;;;;;;;;;;;;-2.36;68.13;97643.14;1660906;85;26127;-86
2021/01/28 02:23:30;;;;;;;;;;;;;;;-2.37;68.14;97644.46;1667801;85;25603;-86
2021/01/28 02:26:16;;;;;;;;;;;;;;;-2.43;68.13;97644.20;1664771;85;20279;-86
2021/01/28 02:29:02;;;;;;;;;;;;;;;-2.45;68.12;97640.84;1666798;85;24987;-86
2021/01/28 02:31:49;;;;;;;;;;;;;;;-2.44;68.14;97639.96;1664489;85;22320;-82
2021/01/28 02:34:35;;;;;;;;;;;;;;;-2.48;68.14;97637.11;1661534;84;26215;-82
2021/01/28 02:37:21;;;;;;;;;;;;;;;-2.48;68.17;97629.42;1665721;85;25490;-82
2021/01/28 02:39:55;;;;;;;;;;;;;;;-2.48;68.17;97629.86;1664257;85;20503;-88
2021/01/28 02:42:41;;;;;;;;;;;;;;;-2.50;68.18;97629.91;1664959;85;24911;-89
2021/01/28 02:45:27;;;;;;;;;;;;;;;-2.48;68.19;97620.46;1665150;85;22156;-89
2021/01/28 02:48:12;;;;;;;;;;;;;;;-2.49;68.20;97623.06;1660308;85;26251;-86
2021/01/28 02:50:59;;;;;;;;;;;;;;;-2.43;68.23;97616.47;1664352;85;25897;-86
2021/01/28 02:53:47;;;;;;;;;;;;;;;-2.45;68.23;97624.63;1664562;85;20288;-86
2021/01/28 02:56:32;;;;;;;;;;;;;;;-2.49;68.24;97617.50;1666118;85;26043;-86
2021/01/28 02:59:18;;;;;;;;;;;;;;;-2.52;68.24;97621.45;1665374;85;22131;-86
2021/01/28 03:02:04;;;;;;;;;;;;;;;-2.50;68.25;97612.41;1662471;85;26360;-85
2021/01/28 03:04:50;;;;;;;;;;;;;;;-2.50;68.26;97608.13;1663878;85;25427;-87
2021/01/28 03:07:37;;;;;;;;;;;;;;;-2.51;68.26;97602.64;1665337;85;20674;-86
2021/01/28 03:10:22;;;;;;;;;;;;;;;-2.54;68.25;97597.16;1665540;85;25790;-86
2021/01/28 03:13:08;;;;;;;;;;;;;;;-2.56;68.26;97599.36;1663397;85;22146;-87
2021/01/28 03:15:54;;;;;;;;;;;;;;;-2.61;68.25;97591.82;1666081;85;26140;-86
2021/01/28 03:18:40;;;;;;;;;;;;;;;-2.58;68.24;97595.58;1664987;85;24604;-86
2021/01/28 03:21:27;;;;;;;;;;;;;;;-2.57;68.24;97589.58;1662865;85;20365;-86
2021/01/28 03:24:13;;;;;;;;;;;;;;;-2.61;68.23;97589.26;1646960;85;24964;-88
2021/01/28 03:26:58;;;;;;;;;;;;;;;-2.63;68.23;97589.77;1636347;86;22122;-88
2021/01/28 03:29:32;;;;;;;;;;;;;;;-2.61;68.24;97585.42;1637536;86;27003;-88
2021/01/28 03:32:21;;;;;;;;;;;;;;;-2.64;68.23;97585.53;1613860;87;25410;-88
2021/01/28 03:35:07;;;;;;;;;;;;;;;-2.64;68.25;97579.13;1663118;85;20567;-88
2021/01/28 03:37:53;;;;;;;;;;;;;;;-2.63;68.24;97572.28;1668927;85;24916;-86
2021/01/28 03:40:39;;;;;;;;;;;;;;;-2.67;68.24;97572.80;1696300;84;22165;-85
2021/01/28 03:43:25;;;;;;;;;;;;;;;-2.67;68.25;97570.23;1696829;84;26272;-85
2021/01/28 03:46:11;;;;;;;;;;;;;;;-2.69;68.24;97567.34;1695592;84;24684;-86
2021/01/28 03:48:58;;;;;;;;;;;;;;;-2.69;68.24;97564.79;1696632;84;20380;-86
2021/01/28 03:51:44;;;;;;;;;;;;;;;-2.67;68.25;97557.88;1701021;84;24924;-86
2021/01/28 03:54:30;;;;;;;;;;;;;;;-2.72;68.23;97549.06;1702593;84;22909;-86
2021/01/28 03:57:22;;;;;;;;;;;;;;;-2.77;68.21;97544.53;1696824;84;26184;-86
2021/01/28 04:00:08;;;;;;;;;;;;;;;-2.82;68.21;97537.44;1697605;83;24680;-86
2021/01/28 04:02:56;;;;;;;;;;;;;;;-2.83;68.19;97532.36;1698103;84;20442;-85
2021/01/28 04:05:42;;;;;;;;;;;;;;;-2.90;68.17;97529.62;1698196;84;24927;-86
2021/01/28 04:08:28;;;;;;;;;;;;;;;-2.97;68.16;97527.24;1702500;84;22371;-82
2021/01/28 04:11:13;;;;;;;;;;;;;;;-2.98;68.15;97517.88;1695917;84;26222;-83
2021/01/28 04:13:59;;;;;;;;;;;;;;;-3.01;68.13;97511.59;1698750;83;24614;-87
2021/01/28 04:16:46;;;;;;;;;;;;;;;-3.00;68.14;97513.72;1693463;84;20287;-86
2021/01/28 04:19:26;;;;;;;;;;;;;;;-3.04;68.14;97508.27;1700678;84;25801;-86
2021/01/28 04:22:13;;;;;;;;;;;;;;;-3.08;68.12;97518.22;1679996;84;22159;-86
2021/01/28 04:24:58;;;;;;;;;;;;;;;-3.12;68.14;97514.92;1695631;84;26100;-86
2021/01/28 04:27:45;;;;;;;;;;;;;;;-3.11;68.13;97520.88;1694238;84;24577;-86
2021/01/28 04:30:30;;;;;;;;;;;;;;;-3.14;68.13;97524.36;1696612;84;20310;-86
2021/01/28 04:33:16;;;;;;;;;;;;;;;-3.21;68.15;97529.25;1695996;83;25911;-86
2021/01/28 04:36:03;;;;;;;;;;;;;;;-3.33;68.13;97536.47;1661747;85;22288;-86
2021/01/28 04:38:49;;;;;;;;;;;;;;;-3.39;68.10;97532.37;1660629;85;26384;-86
2021/01/28 04:41:35;;;;;;;;;;;;;;;-3.45;68.07;97534.66;1657833;85;25583;-86
2021/01/28 04:44:21;;;;;;;;;;;;;;;-3.49;68.08;97530.97;1656872;85;20419;-87
2021/01/28 04:47:07;;;;;;;;;;;;;;;-3.51;68.06;97527.60;1656077;85;24778;-87
2021/01/28 04:49:53;;;;;;;;;;;;;;;-3.56;68.08;97529.02;1658401;85;22153;-87
2021/01/28 04:52:39;;;;;;;;;;;;;;;-3.56;68.08;97526.90;1651340;85;26956;-88
2021/01/28 04:55:24;;;;;;;;;;;;;;;-3.54;68.11;97534.91;1653533;85;24686;-88
2021/01/28 04:58:10;;;;;;;;;;;;;;;-3.53;68.13;97530.19;1663768;84;20160;-88
2021/01/28 05:00:56;;;;;;;;;;;;;;;-3.51;68.18;97523.33;1661713;84;25071;-87
2021/01/28 05:03:42;;;;;;;;;;;;;;;-3.51;68.19;97526.33;1654046;85;22257;-88
2021/01/28 05:06:33;;;;;;;;;;;;;;;-3.51;68.22;97516.09;1656500;85;26986;-88
2021/01/28 05:09:19;;;;;;;;;;;;;;;-3.51;68.22;97511.82;1660283;85;24683;-88
2021/01/28 05:12:05;;;;;;;;;;;;;;;-3.48;68.24;97507.88;1656722;85;20554;-88
2021/01/28 05:14:50;;;;;;;;;;;;;;;-3.52;68.27;97507.58;1659128;85;24882;-88
2021/01/28 05:17:37;;;;;;;;;;;;;;;-3.54;68.27;97505.94;1656521;85;23228;-88
2021/01/28 05:20:23;;;;;;;;;;;;;;;-3.48;68.28;97509.59;1650260;85;26210;-88
2021/01/28 05:23:10;;;;;;;;;;;;;;;-3.52;68.30;97499.08;1658727;85;25456;-88
2021/01/28 05:25:55;;;;;;;;;;;;;;;-3.52;68.33;97491.41;1655629;85;20283;-88
2021/01/28 05:28:42;;;;;;;;;;;;;;;-3.57;68.32;97490.70;1659877;84;25819;-86
2021/01/28 05:31:29;;;;;;;;;;;;;;;-3.61;68.33;97479.73;1658771;85;22123;-87
2021/01/28 05:34:15;;;;;;;;;;;;;;;-3.55;68.36;97477.00;1657131;85;26185;-83
2021/01/28 05:37:01;;;;;;;;;;;;;;;-3.57;68.38;97471.52;1681325;85;25405;-83
2021/01/28 05:39:48;;;;;;;;;;;;;;;-3.58;68.39;97463.02;1682061;85;20483;-83
2021/01/28 05:42:33;;;;;;;;;;;;;;;-3.58;68.40;97451.51;1682284;85;24913;-86
2021/01/28 05:45:14;;;;;;;;;;;;;;;-3.58;68.41;97444.27;1680968;85;22263;-86
2021/01/28 05:48:01;;;;;;;;;;;;;;;-3.61;68.43;97443.94;1681335;85;26147;-86
2021/01/28 05:50:47;;;;;;;;;;;;;;;-3.69;68.43;97435.65;1681527;85;24869;-86
2021/01/28 05:53:33;;;;;;;;;;;;;;;-3.70;68.42;97433.97;1680575;84;20187;-86
2021/01/28 05:56:19;;;;;;;;;;;;;;;-3.66;68.42;97436.02;1680671;85;24995;-87
2021/01/28 05:59:05;;;;;;;;;;;;;;;-3.67;68.45;97447.11;1681392;85;23047;-87
2021/01/28 06:01:52;;;;;;;;;;;;;;;-3.66;68.46;97441.13;1681065;85;27063;-87
2021/01/28 06:04:39;;;;;;;;;;;;;;;-3.64;68.49;97438.06;1681339;85;24735;-87
2021/01/28 06:07:24;;;;;;;;;;;;;;;-3.67;68.51;97436.45;1679443;85;20314;-87
2021/01/28 06:10:10;;;;;;;;;;;;;;;-3.70;68.52;97428.02;1681580;85;24909;-87
2021/01/28 06:12:56;;;;;;;;;;;;;;;-3.69;68.54;97420.75;1681781;85;22614;-86
2021/01/28 06:15:42;;;;;;;;;;;;;;;-3.67;68.56;97424.95;1681222;85;27041;-87
2021/01/28 06:18:28;;;;;;;;;;;;;;;-3.63;68.59;97416.73;1681627;85;24795;-87
2021/01/28 06:21:15;;;;;;;;;;;;;;;-3.64;68.62;97418.89;1681630;85;20402;-83
2021/01/28 06:24:01;;;;;;;;;;;;;;;-3.65;68.64;97409.54;1681019;85;24935;-84
2021/01/28 06:26:47;;;;;;;;;;;;;;;-3.61;68.67;97412.42;1680244;85;22168;-83
2021/01/28 06:29:34;;;;;;;;;;;;;;;-3.57;68.71;97405.05;1681160;85;27050;-83
2021/01/28 06:32:20;;;;;;;;;;;;;;;-3.54;68.75;97407.06;1681816;85;24601;-87
2021/01/28 06:35:07;;;;;;;;;;;;;;;-3.50;68.77;97400.15;1690136;83;20510;-87
2021/01/28 06:37:54;;;;;;;;;;;;;;;-3.53;68.80;97407.45;1702421;83;24983;-86
2021/01/28 06:40:40;;;;;;;;;;;;;;;-3.51;68.83;97408.27;1708606;83;22135;-87
2021/01/28 06:43:26;;;;;;;;;;;;;;;-3.50;68.82;97409.09;1708098;83;27126;-87
2021/01/28 06:46:11;;;;;;;;;;;;;;;-3.51;68.85;97413.81;1701811;83;24018;-88
2021/01/28 06:48:57;;;;;;;;;;;;;;;-3.52;68.87;97412.14;1705478;83;20315;-88
2021/01/28 06:51:46;;;;;;;;;;;;;;;-3.48;68.89;97419.66;1706663;83;25092;-88
2021/01/28 06:54:32;;;;;;;;;;;;;;;-3.45;68.93;97418.30;1707294;83;22325;-88
2021/01/28 06:57:07;;;;;;;;;;;;;;;-3.46;68.94;97422.17;1707932;83;26204;-87
2021/01/28 06:59:53;;;;;;;;;;;;;;;-3.40;68.97;97415.60;1701785;83;24681;-88
2021/01/28 07:02:39;;;;;;;;;;;;;;;-3.37;69.01;97399.70;1705289;83;20620;-87
2021/01/28 07:05:26;;;;;;;;;;;;;;;-3.31;69.05;97394.00;1702407;82;24926;-86
2021/01/28 07:08:12;;;;;;;;;;;;;;;-3.27;69.09;97384.90;1705297;83;22122;-86
2021/01/28 07:10:58;;;;;;;;;;;;;;;-3.19;69.12;97376.99;1704474;83;26183;-87
2021/01/28 07:13:44;;;;;;;;;;;;;;;-3.14;69.17;97364.88;1710937;83;24668;-86
2021/01/28 07:16:30;;;;;;;;;;;;;;;-3.08;69.22;97365.52;1706746;83;20359;-86
2021/01/28 07:19:17;;;;;;;;;;;;;;;-3.01;69.25;97373.84;1698979;83;25762;-86
2021/01/28 07:22:06;;;;;;;;;;;;;;;-2.96;69.30;97376.64;1701250;83;22077;-84
2021/01/28 07:24:52;;;;;;;;;;;;;;;-2.85;69.33;97386.96;1695489;83;26119;-84
2021/01/28 07:27:38;;;;;;;;;;;;;;;-2.75;69.40;97390.44;1702195;83;24605;-84
2021/01/28 07:30:24;;;;;;;;;;;;;;;-2.68;69.44;97379.11;1704890;83;20358;-84
2021/01/28 07:33:10;;;;;;;;;;;;;;;-2.59;69.50;97381.78;1697574;83;25957;-84
2021/01/28 07:35:57;;;;;;;;;;;;;;;-2.52;69.52;97373.45;1678813;84;22001;-84
2021/01/28 07:38:42;;;;;;;;;;;;;;;-2.43;69.56;97362.88;1696985;84;26194;-84
2021/01/28 07:41:29;;;;;;;;;;;;;;;-2.33;69.60;97366.33;1699017;84;24557;-84
2021/01/28 07:44:16;;;;;;;;;;;;;;;-2.23;69.64;97357.42;1699362;84;20471;-85
2021/01/28 07:47:03;;;;;;;;;;;;;;;-2.15;69.67;97355.87;1696821;83;24966;-87
2021/01/28 07:49:50;;;;;;;;;;;;;;;-2.07;69.71;97360.73;1696168;84;22175;-84
2021/01/28 07:52:35;;;;;;;;;;;;;;;-1.98;69.74;97348.39;1698069;84;26114;-84
2021/01/28 07:55:21;;;;;;;;;;;;;;;-1.90;69.78;97344.24;1696817;84;24701;-87
2021/01/28 07:58:07;;;;;;;;;;;;;;;-1.80;69.82;97354.56;1703452;84;20343;-87
2021/01/28 08:00:54;;;;;;;;;;;;;;;-1.73;69.85;97354.25;1697154;83;24979;-84
2021/01/28 08:03:39;;;;;;;;;;;;;;;-1.66;69.88;97352.30;1697667;83;22248;-86
2021/01/28 08:06:27;;;;;;;;;;;;;;;-1.58;69.92;97348.97;1695116;84;26955;-84
2021/01/28 08:09:14;;;;;;;;;;;;;;;-1.49;69.95;97354.20;1700621;83;24823;-84
2021/01/28 08:12:00;;;;;;;;;;;;;;;-1.43;69.96;97360.38;1697185;84;20288;-86
2021/01/28 08:14:47;;;;;;;;;;;;;;;-1.38;69.97;97347.76;1694791;84;25850;-86
2021/01/28 08:17:33;;;;;;;;;;;;;;;-1.35;69.97;97351.47;1695379;84;22175;-87
2021/01/28 08:20:19;;;;;;;;;;;;;;;-1.32;69.98;97339.82;1696860;84;26125;-87
2021/01/28 08:23:05;;;;;;;;;;;;;;;-1.28;69.99;97341.36;1698582;84;24624;-86
2021/01/28 08:25:51;;;;;;;;;;;;;;;-1.19;69.97;97343.15;1695705;84;20527;-86
2021/01/28 08:28:38;;;;;;;;;;;;;;;-1.13;69.98;97336.48;1696665;83;24877;-86
2021/01/28 08:31:24;;;;;;;;;;;;;;;-1.10;69.98;97338.95;1695739;84;23047;-86
2021/01/28 08:34:11;;;;;;;;;;;;;;;-1.05;69.99;97334.45;1698293;84;26125;-86
2021/01/28 08:37:00;;;;;;;;;;;;;;;-0.99;69.97;97328.63;1703408;83;24867;-86
2021/01/28 08:39:45;;;;;;;;;;;;;;;-0.93;69.97;97323.68;1705715;83;20262;-83
2021/01/28 08:42:32;;;;;;;;;;;;;;;-0.89;69.97;97330.34;1705414;83;24912;-84
2021/01/28 08:45:18;;;;;;;;;;;;;;;-0.82;69.94;97338.19;1707832;83;22330;-84
2021/01/28 08:48:04;;;;;;;;;;;;;;;-0.73;69.93;97331.81;1673505;85;25645;-84
2021/01/28 08:50:51;;;;;;;;;;;;;;;-0.64;69.93;97324.55;1656459;85;24628;-86
2021/01/28 08:53:37;;;;;;;;;;;;;;;-0.59;69.92;97323.89;1665233;85;20287;-86
2021/01/28 08:56:24;;;;;;;;;;;;;;;-0.51;69.91;97306.42;1654803;85;24930;-86
2021/01/28 08:59:09;;;;;;;;;;;;;;;-0.42;69.92;97302.16;1660362;85;23350;-86
2021/01/28 09:01:56;;;;;;;;;;;;;;;-0.34;69.92;97298.42;1661942;85;26324;-86
2021/01/28 09:04:42;;;;;;;;;;;;;;;-0.28;69.91;97288.70;1653723;85;24637;-84
2021/01/28 09:07:30;;;;;;;;;;;;;;;-0.20;69.90;97289.17;1638327;86;20400;-86
2021/01/28 09:10:18;;;;;;;;;;;;;;;-0.12;69.89;97297.39;1638095;87;26016;-85
2021/01/28 09:13:07;;;;;;;;;;;;;;;-0.07;69.89;97295.44;1658862;85;22175;-86
2021/01/28 09:15:53;;;;;;;;;;;;;;;-0.03;69.83;97304.67;1660183;85;27099;-85
2021/01/28 09:18:40;;;;;;;;;;;;;;;0.03;69.81;97294.55;1663057;85;24695;-83
2021/01/28 09:21:26;;;;;;;;;;;;;;;0.10;69.79;97292.54;1655617;84;20280;-84
2021/01/28 09:24:12;;;;;;;;;;;;;;;0.22;69.74;97287.63;1661928;85;24883;-84
2021/01/28 09:26:58;;;;;;;;;;;;;;;0.35;69.76;97292.59;1658673;85;21499;-84
2021/01/28 09:29:44;;;;;;;;;;;;;;;0.46;69.76;97279.66;1660499;85;26367;-84
2021/01/28 09:32:30;;;;;;;;;;;;;;;0.53;69.77;97274.61;1664864;85;24631;-83
2021/01/28 09:35:17;;;;;;;;;;;;;;;0.55;69.73;97265.89;1657968;85;20497;-86
2021/01/28 09:38:04;;;;;;;;;;;;;;;0.56;69.67;97264.16;1670868;84;25897;-83
2021/01/28 09:40:50;;;;;;;;;;;;;;;0.61;69.64;97252.72;1664540;85;22949;-84
2021/01/28 09:43:38;;;;;;;;;;;;;;;0.63;69.61;97251.38;1665932;85;27067;-84
2021/01/28 09:46:25;;;;;;;;;;;;;;;0.65;69.57;97242.68;1666788;85;24657;-86
2021/01/28 09:49:11;;;;;;;;;;;;;;;0.70;69.54;97242.00;1670261;85;20267;-86
2021/01/28 09:51:58;;;;;;;;;;;;;;;0.75;69.53;97246.91;1644433;85;24914;-86
2021/01/28 09:54:46;;;;;;;;;;;;;;;0.83;69.50;97248.63;1668719;85;22233;-86
2021/01/28 09:57:34;;;;;;;;;;;;;;;0.86;69.46;97231.76;1668727;85;27076;-86
2021/01/28 10:00:24;;;;;;;;;;;;;;;0.93;69.44;97215.55;1671175;85;25418;-86
2021/01/28 10:02:59;;;;;;;;;;;;;;;1.01;69.44;97212.95;1672723;85;20291;-87
2021/01/28 10:05:50;;;;;;;;;;;;;;;1.08;69.41;97205.29;1645296;86;40490;-86
2021/01/28 10:08:39;;;;;;;;;;;;;;;1.11;69.38;97199.96;1668666;85;22132;-87
2021/01/28 10:11:25;;;;;;;;;;;;;;;1.12;69.38;97197.77;1669179;85;26963;-86
2021/01/28 10:14:11;;;;;;;;;;;;;;;1.20;69.33;97195.61;1673951;85;24065;-86
2021/01/28 10:16:58;;;;;;;;;;;;;;;1.27;69.30;97183.23;1672902;85;20279;-86
2021/01/28 10:19:44;;;;;;;;;;;;;;;1.30;69.30;97180.52;1650376;85;24848;-86
2021/01/28 10:22:30;;;;;;;;;;;;;;;1.29;69.24;97184.00;1658321;85;22337;-86
2021/01/28 10:25:16;;;;;;;;;;;;;;;1.40;69.21;97179.56;1657432;85;26207;-87
2021/01/28 10:28:02;;;;;;;;;;;;;;;1.45;69.19;97178.41;1652815;85;24812;-87
2021/01/28 10:30:51;;;;;;;;;;;;;;;1.53;69.16;97168.95;1661313;85;20496;-87
2021/01/28 10:33:37;;;;;;;;;;;;;;;1.62;69.17;97159.45;1659255;85;24926;-87
2021/01/28 10:36:23;;;;;;;;;;;;;;;1.75;69.18;97151.85;1675871;84;22235;-86
2021/01/28 10:39:09;;;;;;;;;;;;;;;1.80;69.17;97145.53;1675127;84;26149;-87
2021/01/28 10:41:56;;;;;;;;;;;;;;;1.80;69.15;97141.66;1681566;84;24822;-85
2021/01/28 10:44:42;;;;;;;;;;;;;;;1.88;69.11;97137.38;1673735;84;20276;-85
2021/01/28 10:47:32;;;;;;;;;;;;;;;1.96;69.10;97133.47;1674183;84;25032;-86
2021/01/28 10:50:21;;;;;;;;;;;;;;;2.11;69.11;97129.18;1665472;84;22145;-87
2021/01/28 10:53:08;;;;;;;;;;;;;;;2.21;69.10;97122.56;1669855;84;26410;-90
2021/01/28 10:55:55;;;;;;;;;;;;;;;2.26;69.09;97116.68;1685799;84;24656;-85
2021/01/28 10:58:29;;;;;;;;;;;;;;;2.26;69.03;97104.23;1679803;83;20648;-89
2021/01/28 11:01:15;;;;;;;;;;;;;;;2.30;69.00;97101.84;1679364;84;25183;-88
2021/01/28 11:04:03;;;;;;;;;;;;;;;2.24;68.94;97103.48;1679578;84;22216;-91
2021/01/28 11:06:53;;;;;;;;;;;;;;;2.26;68.87;97114.55;1675728;84;27094;-88
2021/01/28 11:09:39;;;;;;;;;;;;;;;2.24;68.81;97100.44;1672902;84;23852;-88
2021/01/28 11:12:31;;;;;;;;;;;;;;;2.29;68.76;97093.75;1680178;84;20262;-88
2021/01/28 11:15:17;;;;;;;;;;;;;;;2.31;68.70;97107.38;1688124;84;25249;-88
2021/01/28 11:18:04;;;;;;;;;;;;;;;2.31;68.66;97107.38;1671588;84;22140;-89
2021/01/28 11:20:50;;;;;;;;;;;;;;;2.24;68.58;97113.80;1679405;84;26196;-87
2021/01/28 11:23:37;;;;;;;;;;;;;;;2.21;68.49;97108.38;1676614;84;24601;-86
2021/01/28 11:26:25;;;;;;;;;;;;;;;2.26;68.45;97093.91;1690103;84;20265;-87
2021/01/28 11:29:11;;;;;;;;;;;;;;;2.29;68.39;97086.80;1679439;84;25043;-88
2021/01/28 11:31:57;;;;;;;;;;;;;;;2.35;68.37;97081.75;1672251;84;22293;-86
2021/01/28 11:34:43;;;;;;;;;;;;;;;2.38;68.34;97076.42;1671383;84;26333;-87
2021/01/28 11:37:30;;;;;;;;;;;;;;;2.41;68.35;97078.34;1685480;84;24652;-87
2021/01/28 11:40:17;;;;;;;;;;;;;;;2.37;68.28;97085.08;1673042;84;20368;-88
2021/01/28 11:43:04;;;;;;;;;;;;;;;2.35;68.22;97072.71;1676730;84;24966;-88
2021/01/28 11:45:50;;;;;;;;;;;;;;;2.39;68.19;97070.34;1673618;84;22117;-88
2021/01/28 11:48:36;;;;;;;;;;;;;;;2.42;68.19;97067.11;1685038;84;26998;-88
2021/01/28 11:51:22;;;;;;;;;;;;;;;2.33;68.16;97059.09;1676717;84;24595;-88
2021/01/28 11:54:10;;;;;;;;;;;;;;;2.32;68.12;97054.84;1679936;84;20372;-88
2021/01/28 11:56:57;;;;;;;;;;;;;;;2.35;68.09;97043.86;1682135;84;25128;-86
2021/01/28 11:59:46;;;;;;;;;;;;;;;2.38;68.09;97051.44;1683054;84;23024;-87
2021/01/28 12:02:32;;;;;;;;;;;;;;;2.37;68.08;97042.48;1657189;84;26766;-87
2021/01/28 12:05:19;;;;;;;;;;;;;;;2.33;68.05;97025.53;1678148;84;24712;-87
2021/01/28 12:07:54;;;;;;;;;;;;;;;2.34;68.03;97015.12;1686461;84;20468;-87
2021/01/28 12:10:41;;;;;;;;;;;;;;;2.45;68.02;97009.31;1679420;84;25765;-86
2021/01/28 12:13:26;;;;;;;;;;;;;;;2.41;68.03;97006.52;1680890;84;23080;-87
2021/01/28 12:16:13;;;;;;;;;;;;;;;2.40;68.00;97004.40;1675536;84;26052;-87
2021/01/28 12:18:58;;;;;;;;;;;;;;;2.52;68.01;97013.16;1678026;84;24638;-87
2021/01/28 12:21:44;;;;;;;;;;;;;;;2.56;68.03;97017.24;1676642;84;20285;-87
2021/01/28 12:24:30;;;;;;;;;;;;;;;2.64;68.03;97017.59;1673998;84;24918;-86
2021/01/28 12:27:17;;;;;;;;;;;;;;;2.75;68.06;97006.14;1686596;84;23135;-87
2021/01/28 12:30:03;;;;;;;;;;;;;;;2.80;68.09;97011.85;1670505;84;26228;-88
2021/01/28 12:32:49;;;;;;;;;;;;;;;2.77;68.08;97015.09;1666419;85;24595;-88
2021/01/28 12:35:35;;;;;;;;;;;;;;;2.74;68.05;97013.52;1662923;85;20263;-89
2021/01/28 12:38:25;;;;;;;;;;;;;;;2.71;68.00;97004.68;1666686;84;24911;-89
2021/01/28 12:41:11;;;;;;;;;;;;;;;2.69;67.97;96998.77;1666886;85;22327;-87
2021/01/28 12:43:56;;;;;;;;;;;;;;;2.65;67.94;96988.27;1669498;85;26133;-88
2021/01/28 12:46:42;;;;;;;;;;;;;;;2.61;67.90;96991.13;1664541;85;24707;-89
2021/01/28 12:49:17;;;;;;;;;;;;;;;2.64;67.87;96985.77;1668975;85;20513;-89
2021/01/28 12:52:03;;;;;;;;;;;;;;;2.64;67.85;96984.48;1672142;85;24274;-88
2021/01/28 12:54:50;;;;;;;;;;;;;;;2.64;67.83;96976.73;1668322;85;22130;-89
2021/01/28 12:57:36;;;;;;;;;;;;;;;2.69;67.81;96969.06;1665732;85;26210;-87
2021/01/28 13:00:22;;;;;;;;;;;;;;;2.76;67.80;96969.52;1669843;85;25632;-87
2021/01/28 13:03:09;;;;;;;;;;;;;;;2.78;67.79;96962.52;1669501;85;20270;-88
2021/01/28 13:05:56;;;;;;;;;;;;;;;2.79;67.79;96955.11;1670682;85;25088;-89
2021/01/28 13:08:42;;;;;;;;;;;;;;;2.75;67.77;96960.94;1668509;85;23221;-87
2021/01/28 13:11:28;;;;;;;;;;;;;;;2.78;67.74;96949.11;1666862;85;26413;-87
2021/01/28 13:14:14;;;;;;;;;;;;;;;2.77;67.75;96931.98;1667734;85;25080;-87
2021/01/28 13:17:02;;;;;;;;;;;;;;;2.74;67.73;96937.78;1667839;85;20394;-86
2021/01/28 13:19:50;;;;;;;;;;;;;;;2.58;67.69;96923.70;1656715;85;25462;-86
2021/01/28 13:22:36;;;;;;;;;;;;;;;2.66;67.67;96951.19;1662573;84;22168;-88
2021/01/28 13:25:22;;;;;;;;;;;;;;;2.62;67.64;96942.45;1666738;84;26137;-87
2021/01/28 13:27:58;;;;;;;;;;;;;;;2.57;67.61;96943.99;1666797;85;24633;-87
2021/01/28 13:30:45;;;;;;;;;;;;;;;2.57;67.59;96931.54;1667503;85;20367;-85
2021/01/28 13:33:31;;;;;;;;;;;;;;;2.62;67.62;96927.75;1666523;85;25848;-85
2021/01/28 13:36:17;;;;;;;;;;;;;;;2.67;67.62;96933.48;1653191;85;22097;-86
2021/01/28 13:39:03;;;;;;;;;;;;;;;2.62;67.60;96928.24;1655259;85;26140;-86
2021/01/28 13:41:49;;;;;;;;;;;;;;;2.69;67.62;96929.03;1672892;85;24703;-86
2021/01/28 13:44:35;;;;;;;;;;;;;;;2.73;67.63;96927.91;1667612;85;20342;-85
2021/01/28 13:47:21;;;;;;;;;;;;;;;2.73;67.66;96926.62;1674445;84;25093;-86
2021/01/28 13:50:08;;;;;;;;;;;;;;;2.69;67.67;96906.25;1663635;85;22141;-85
2021/01/28 13:52:55;;;;;;;;;;;;;;;2.67;67.69;96899.08;1657611;85;27000;-85
2021/01/28 13:55:41;;;;;;;;;;;;;;;2.67;67.69;96888.30;1711273;83;24618;-86
2021/01/28 13:58:27;;;;;;;;;;;;;;;2.68;67.71;96865.39;1709522;83;20367;-86
2021/01/28 14:01:14;;;;;;;;;;;;;;;2.68;67.72;96856.34;1716717;83;25425;-86
2021/01/28 14:04:01;;;;;;;;;;;;;;;2.69;67.73;96857.18;1708232;83;22238;-86
2021/01/28 14:06:47;;;;;;;;;;;;;;;2.62;67.75;96855.44;1714326;82;26090;-86
2021/01/28 14:09:33;;;;;;;;;;;;;;;2.57;67.74;96857.95;1711634;83;25432;-86
2021/01/28 14:12:19;;;;;;;;;;;;;;;2.58;67.73;96872.06;1706356;83;20289;-85
2021/01/28 14:15:05;;;;;;;;;;;;;;;2.52;67.73;96876.31;1712814;83;25836;-85
2021/01/28 14:17:53;;;;;;;;;;;;;;;2.40;67.72;96871.45;1716529;83;23250;-85
2021/01/28 14:20:39;;;;;;;;;;;;;;;2.36;67.72;96866.13;1707334;83;26137;-85
2021/01/28 14:23:28;;;;;;;;;;;;;;;2.34;67.69;96859.42;1706913;83;24702;-85
2021/01/28 14:26:16;;;;;;;;;;;;;;;2.33;67.69;96853.42;1711229;83;20279;-84
2021/01/28 14:29:05;;;;;;;;;;;;;;;2.33;67.71;96844.39;1716232;83;24908;-85